createdAt,value
2019-04-27T00:00:57.220Z,64.83
2019-04-27T00:03:41.385Z,64.49
2019-04-27T00:06:14.203Z,64.37
2019-04-27T00:08:48.234Z,64.60
2019-04-27T00:11:41.405Z,64.51
2019-04-27T00:14:10.368Z,64.19
2019-04-27T00:16:53.907Z,64.02
2019-04-27T00:19:40.824Z,63.63
2019-04-27T00:22:13.255Z,63.91
2019-04-27T00:24:44.165Z,64.00
2019-04-27T00:27:13.877Z,63.57
2019-04-27T00:29:43.547Z,63.76
2019-04-27T00:32:13.329Z,63.79
2019-04-27T00:34:43.183Z,63.23
2019-04-27T00:37:26.300Z,63.38
2019-04-27T00:40:00.257Z,62.75
2019-04-27T00:42:29.863Z,62.84
2019-04-27T00:44:59.462Z,63.07
2019-04-27T00:47:29.151Z,63.34
2019-04-27T00:49:58.744Z,63.44
2019-04-27T00:52:28.355Z,63.58
2019-04-27T00:54:57.988Z,63.63
2019-04-27T00:57:33.215Z,63.28
2019-04-27T01:00:20.531Z,63.05
2019-04-27T01:02:53.580Z,63.29
2019-04-27T01:05:24.977Z,63.42
2019-04-27T01:07:54.577Z,63.69
2019-04-27T01:10:24.161Z,63.63
2019-04-27T01:12:53.775Z,63.87
2019-04-27T01:15:23.867Z,63.53
2019-04-27T01:17:53.424Z,63.55
2019-04-27T01:20:23.030Z,63.59
2019-04-27T01:22:52.642Z,63.61
2019-04-27T01:25:23.877Z,64.01
2019-04-27T01:27:59.550Z,64.07
2019-04-27T01:30:36.102Z,63.94
2019-04-27T01:33:05.887Z,64.00
2019-04-27T01:35:35.483Z,64.12
2019-04-27T01:38:05.092Z,64.17
2019-04-27T01:40:34.701Z,64.13
2019-04-27T01:43:04.306Z,63.92
2019-04-27T01:45:33.908Z,64.16
2019-04-27T01:48:03.679Z,63.88
2019-04-27T01:50:33.261Z,64.19
2019-04-27T01:53:02.937Z,64.68
2019-04-27T01:55:32.544Z,64.69
2019-04-27T01:58:02.225Z,65.15
2019-04-27T02:00:43.856Z,65.17
2019-04-27T02:03:15.095Z,65.56
2019-04-27T02:05:46.506Z,66.40
2019-04-27T02:08:16.092Z,66.57
2019-04-27T02:10:45.768Z,67.11
2019-04-27T02:13:15.557Z,66.83
2019-04-27T02:15:45.224Z,66.71
2019-04-27T02:18:14.832Z,66.88
2019-04-27T02:20:44.640Z,66.72
2019-04-27T02:23:14.330Z,66.54
2019-04-27T02:25:43.928Z,66.55
2019-04-27T02:28:15.182Z,66.65
2019-04-27T02:31:02.723Z,66.73
2019-04-27T02:33:34.650Z,66.66
2019-04-27T02:36:04.498Z,66.61
2019-04-27T02:38:34.103Z,66.61
2019-04-27T02:41:04.603Z,66.80
2019-04-27T02:43:35.840Z,66.40
2019-04-27T02:46:05.515Z,66.34
2019-04-27T02:48:51.927Z,66.57
2019-04-27T02:51:10.076Z,66.81
2019-04-27T02:53:56.180Z,66.56
2019-04-27T02:56:26.167Z,66.67
2019-04-27T02:58:55.940Z,66.85
2019-04-27T03:01:27.184Z,67.03
2019-04-27T03:03:56.782Z,67.13
2019-04-27T03:06:26.384Z,66.92
2019-04-27T03:08:56.005Z,67.29
2019-04-27T03:11:27.280Z,67.60
2019-04-27T03:14:28.408Z,67.85
2019-04-27T03:16:50.413Z,67.87
2019-04-27T03:19:22.097Z,68.46
2019-04-27T03:22:05.200Z,68.42
2019-04-27T03:24:45.450Z,68.65
2019-04-27T03:27:16.684Z,68.58
2019-04-27T03:29:46.451Z,68.50
2019-04-27T03:32:16.139Z,68.61
2019-04-27T03:34:45.752Z,68.53
2019-04-27T03:37:15.352Z,68.63
2019-04-27T03:39:45.048Z,68.61
2019-04-27T03:42:15.901Z,68.34
2019-04-27T03:44:45.516Z,67.75
2019-04-27T03:47:15.125Z,67.84
2019-04-27T03:49:46.104Z,68.06
2019-04-27T03:52:19.708Z,68.30
2019-04-27T03:54:50.551Z,67.46
2019-04-27T03:57:29.617Z,67.77
2019-04-27T04:00:03.255Z,68.09
2019-04-27T04:02:32.852Z,68.10
2019-04-27T04:05:03.399Z,67.79
2019-04-27T04:07:33.004Z,67.14
2019-04-27T04:10:02.707Z,67.65
2019-04-27T04:12:50.054Z,67.45
2019-04-27T04:15:23.977Z,67.53
2019-04-27T04:17:53.573Z,67.04
2019-04-27T04:20:23.210Z,67.13
2019-04-27T04:22:52.796Z,66.75
2019-04-27T04:25:22.416Z,66.65
2019-04-27T04:27:52.019Z,67.06
2019-04-27T04:30:21.634Z,66.77
2019-04-27T04:32:52.005Z,66.50
2019-04-27T04:35:25.490Z,66.90
2019-04-27T04:37:55.094Z,66.72
2019-04-27T04:40:32.138Z,66.81
2019-04-27T04:43:03.657Z,66.93
2019-04-27T04:45:45.795Z,67.32
2019-04-27T04:48:17.049Z,67.21
2019-04-27T04:50:46.665Z,67.22
2019-04-27T04:53:16.283Z,67.29
2019-04-27T04:55:46.163Z,67.66
2019-04-27T04:58:15.771Z,67.15
2019-04-27T05:00:45.405Z,67.31
2019-04-27T05:03:14.994Z,66.48
2019-04-27T05:05:44.638Z,66.24
2019-04-27T05:08:14.247Z,65.98
2019-04-27T05:10:43.869Z,65.67
2019-04-27T05:13:13.457Z,65.27
2019-04-27T05:15:43.102Z,65.25
2019-04-27T05:18:12.708Z,65.45
2019-04-27T05:20:58.671Z,65.11
2019-04-27T05:23:28.770Z,65.20
2019-04-27T05:25:59.281Z,65.28
2019-04-27T05:28:29.891Z,64.98
2019-04-27T05:31:00.639Z,64.32
2019-04-27T05:33:30.279Z,64.38
2019-04-27T05:35:59.888Z,64.35
2019-04-27T05:38:29.629Z,64.27
2019-04-27T05:40:59.342Z,64.50
2019-04-27T05:43:33.428Z,64.16
2019-04-27T05:46:40.315Z,63.42
2019-04-27T05:49:11.561Z,63.56
2019-04-27T05:51:42.040Z,63.23
2019-04-27T05:54:11.666Z,62.97
2019-04-27T05:56:41.687Z,62.33
2019-04-27T05:59:14.465Z,61.99
2019-04-27T06:01:42.625Z,62.06
2019-04-27T06:04:12.230Z,61.76
2019-04-27T06:06:41.840Z,61.68
2019-04-27T06:09:11.456Z,61.08
2019-04-27T06:11:41.063Z,60.90
2019-04-27T06:14:10.675Z,60.63
2019-04-27T06:16:40.296Z,60.13
2019-04-27T06:19:09.893Z,59.84
2019-04-27T06:21:40.108Z,59.82
2019-04-27T06:24:10.011Z,59.14
2019-04-27T06:26:40.080Z,58.57
2019-04-27T06:29:09.822Z,57.62
2019-04-27T06:31:39.784Z,56.94
2019-04-27T06:34:09.918Z,56.12
2019-04-27T06:36:39.654Z,55.58
2019-04-27T06:39:09.999Z,54.73
2019-04-27T06:41:40.177Z,55.52
2019-04-27T06:44:11.431Z,55.64
2019-04-27T06:46:41.279Z,55.52
2019-04-27T06:49:11.256Z,55.28
2019-04-27T06:51:40.986Z,55.34
2019-04-27T06:54:10.616Z,54.63
2019-04-27T06:56:40.224Z,54.43
2019-04-27T06:59:09.841Z,54.62
2019-04-27T07:01:39.452Z,54.54
2019-04-27T07:04:10.878Z,54.55
2019-04-27T07:06:52.879Z,53.97
2019-04-27T07:09:11.786Z,54.51
2019-04-27T07:11:41.382Z,55.18
2019-04-27T07:14:11.703Z,54.90
2019-04-27T07:16:41.459Z,54.09
2019-04-27T07:19:11.091Z,53.39
2019-04-27T07:21:40.672Z,52.58
2019-04-27T07:24:10.278Z,52.55
2019-04-27T07:26:39.884Z,51.91
2019-04-27T07:29:09.755Z,51.24
2019-04-27T07:31:40.120Z,50.23
2019-04-27T07:34:10.092Z,49.73
2019-04-27T07:36:39.692Z,49.46
2019-04-27T07:39:11.610Z,49.14
2019-04-27T07:41:41.013Z,49.41
2019-04-27T07:44:12.285Z,49.41
2019-04-27T07:46:41.887Z,48.82
2019-04-27T07:49:11.509Z,48.26
2019-04-27T07:51:41.118Z,48.28
2019-04-27T07:54:10.747Z,47.87
2019-04-27T07:56:40.364Z,47.32
2019-04-27T07:59:09.976Z,46.84
2019-04-27T08:01:39.582Z,46.63
2019-04-27T08:04:09.309Z,45.92
2019-04-27T08:06:38.943Z,45.35
2019-04-27T08:09:09.409Z,45.08
2019-04-27T08:11:39.395Z,44.71
2019-04-27T08:14:09.129Z,43.42
2019-04-27T08:16:38.984Z,43.46
2019-04-27T08:19:09.924Z,42.90
2019-04-27T08:21:44.300Z,41.98
2019-04-27T08:24:11.191Z,41.34
2019-04-27T08:26:51.549Z,40.43
2019-04-27T08:29:22.805Z,39.63
2019-04-27T08:32:00.161Z,38.50
2019-04-27T08:34:32.903Z,37.50
2019-04-27T08:37:03.615Z,37.20
2019-04-27T08:39:33.394Z,37.01
2019-04-27T08:42:03.174Z,37.10
2019-04-27T08:44:32.790Z,37.51
2019-04-27T08:47:02.410Z,37.69
2019-04-27T08:49:32.006Z,37.58
2019-04-27T08:52:01.961Z,37.77
2019-04-27T08:54:31.619Z,37.27
2019-04-27T08:57:01.721Z,35.51
2019-04-27T08:59:31.394Z,34.26
2019-04-27T09:02:00.998Z,34.45
2019-04-27T09:04:30.601Z,35.24
2019-04-27T09:07:01.877Z,35.73
2019-04-27T09:09:42.024Z,36.25
2019-04-27T09:12:29.459Z,36.21
2019-04-27T09:15:03.142Z,35.61
2019-04-27T09:17:34.390Z,35.41
2019-04-27T09:20:13.384Z,34.38
2019-04-27T09:22:43.008Z,33.15
2019-04-27T09:25:12.762Z,32.55
2019-04-27T09:27:42.374Z,32.27
2019-04-27T09:30:12.111Z,31.30
2019-04-27T09:32:41.718Z,31.06
2019-04-27T09:35:11.378Z,31.85
2019-04-27T09:37:40.985Z,31.65
2019-04-27T09:40:10.831Z,30.61
2019-04-27T09:42:40.612Z,30.47
2019-04-27T09:45:10.727Z,30.05
2019-04-27T09:47:40.334Z,29.71
2019-04-27T09:50:10.443Z,29.06
2019-04-27T09:52:40.045Z,29.32
2019-04-27T09:55:09.973Z,30.06
2019-04-27T09:57:39.586Z,30.68
2019-04-27T10:00:12.163Z,31.88
2019-04-27T10:02:41.778Z,32.61
2019-04-27T10:05:11.783Z,32.31
2019-04-27T10:07:41.399Z,31.60
2019-04-27T10:10:11.394Z,31.42
2019-04-27T10:12:41.003Z,30.59
2019-04-27T10:15:10.926Z,30.49
2019-04-27T10:17:40.544Z,29.96
2019-04-27T10:20:10.840Z,30.00
2019-04-27T10:22:43.553Z,29.23
2019-04-27T10:25:22.876Z,27.36
2019-04-27T10:27:58.400Z,25.14
2019-04-27T10:30:29.192Z,22.64
2019-04-27T10:32:58.788Z,19.72
2019-04-27T10:35:28.383Z,18.93
2019-04-27T10:37:57.985Z,18.23
2019-04-27T10:40:28.447Z,17.08
2019-04-27T10:42:58.121Z,14.98
2019-04-27T10:45:27.716Z,14.07
2019-04-27T10:47:57.326Z,13.71
2019-04-27T10:50:26.923Z,12.83
2019-04-27T10:52:59.244Z,11.65
2019-04-27T10:55:27.929Z,12.11
2019-04-27T10:57:57.551Z,12.63
2019-04-27T11:00:40.715Z,13.85
2019-04-27T11:03:10.969Z,14.16
2019-04-27T11:05:43.157Z,14.60
2019-04-27T11:08:12.775Z,14.36
2019-04-27T11:10:42.522Z,14.43
2019-04-27T11:13:12.127Z,15.52
2019-04-27T11:15:41.798Z,15.78
2019-04-27T11:18:11.408Z,15.25
2019-04-27T11:20:41.006Z,15.08
2019-04-27T11:23:12.365Z,14.57
2019-04-27T11:25:41.952Z,14.22
2019-04-27T11:28:11.557Z,14.54
2019-04-27T11:30:41.168Z,15.22
2019-04-27T11:33:10.790Z,15.36
2019-04-27T11:35:44.822Z,14.36
2019-04-27T11:38:14.424Z,12.82
2019-04-27T11:40:44.019Z,11.36
2019-04-27T11:43:13.627Z,10.36
2019-04-27T11:45:43.212Z,9.87
2019-04-27T11:48:12.972Z,8.63
2019-04-27T11:50:42.557Z,8.89
2019-04-27T11:53:22.062Z,10.08
2019-04-27T11:55:43.506Z,10.63
2019-04-27T11:58:13.112Z,10.89
2019-04-27T12:00:42.729Z,10.43
2019-04-27T12:03:12.341Z,9.61
2019-04-27T12:05:41.937Z,9.93
2019-04-27T12:08:11.549Z,8.96
2019-04-27T12:10:41.145Z,11.59
2019-04-27T12:13:10.750Z,13.17
2019-04-27T12:15:40.348Z,11.28
2019-04-27T12:18:09.958Z,10.33
2019-04-27T12:20:39.550Z,9.64
2019-04-27T12:23:09.154Z,10.71
2019-04-27T12:25:38.750Z,13.91
2019-04-27T12:28:27.074Z,18.72
2019-04-27T12:30:58.231Z,21.74
2019-04-27T12:33:27.877Z,23.85
2019-04-27T12:35:57.469Z,25.81
2019-04-27T12:38:28.300Z,27.50
2019-04-27T12:40:57.961Z,30.22
2019-04-27T12:43:27.561Z,31.45
2019-04-27T12:45:57.441Z,33.72
2019-04-27T12:48:27.207Z,33.25
2019-04-27T12:50:56.834Z,32.25
2019-04-27T12:53:30.866Z,31.92
2019-04-27T12:56:02.117Z,31.50
2019-04-27T12:58:33.362Z,31.20
2019-04-27T13:01:07.282Z,31.03
2019-04-27T13:03:36.366Z,30.44
2019-04-27T13:06:06.094Z,31.66
2019-04-27T13:08:35.838Z,33.15
2019-04-27T13:11:06.048Z,34.31
2019-04-27T13:13:36.815Z,33.67
2019-04-27T13:16:06.703Z,32.58
2019-04-27T13:18:36.517Z,32.71
2019-04-27T13:21:06.192Z,33.72
2019-04-27T13:23:37.149Z,33.59
2019-04-27T13:26:07.075Z,31.22
2019-04-27T13:28:36.669Z,30.41
2019-04-27T13:31:06.773Z,30.68
2019-04-27T13:33:36.558Z,32.88
2019-04-27T13:36:07.529Z,31.31
2019-04-27T13:38:37.234Z,31.62
2019-04-27T13:41:10.480Z,31.07
2019-04-27T13:43:40.222Z,31.13
2019-04-27T13:46:11.537Z,30.92
2019-04-27T13:48:59.041Z,30.12
2019-04-27T13:51:41.908Z,29.77
2019-04-27T13:54:18.843Z,30.31
2019-04-27T13:56:42.822Z,30.33
2019-04-27T13:59:13.488Z,29.82
2019-04-27T14:01:43.938Z,29.11
2019-04-27T14:04:13.998Z,28.35
2019-04-27T14:06:43.665Z,27.70
2019-04-27T14:09:13.292Z,27.36
2019-04-27T14:11:42.888Z,27.11
2019-04-27T14:14:12.501Z,27.14
2019-04-27T14:16:43.823Z,27.07
2019-04-27T14:19:13.587Z,27.07
2019-04-27T14:21:43.212Z,26.28
2019-04-27T14:24:12.793Z,25.78
2019-04-27T14:26:42.397Z,24.50
2019-04-27T14:29:11.981Z,23.78
2019-04-27T14:31:41.585Z,23.28
2019-04-27T14:34:11.165Z,21.64
2019-04-27T14:36:40.781Z,21.96
2019-04-27T14:39:12.071Z,22.52
2019-04-27T14:41:41.694Z,22.86
2019-04-27T14:44:11.463Z,23.61
2019-04-27T14:46:41.072Z,23.87
2019-04-27T14:49:10.666Z,23.44
2019-04-27T14:51:40.298Z,23.44
2019-04-27T14:54:09.866Z,23.01
2019-04-27T14:56:39.666Z,22.63
2019-04-27T14:59:09.442Z,22.19
2019-04-27T15:01:40.078Z,22.76
2019-04-27T15:04:09.733Z,23.40
2019-04-27T15:06:39.335Z,24.00
2019-04-27T15:09:09.213Z,24.28
2019-04-27T15:11:38.850Z,25.45
2019-04-27T15:14:10.172Z,26.40
2019-04-27T15:16:42.247Z,27.25
2019-04-27T15:19:21.597Z,27.77
2019-04-27T15:21:58.520Z,28.17
2019-04-27T15:24:22.626Z,28.48
2019-04-27T15:26:54.301Z,28.88
2019-04-27T15:29:26.806Z,30.52
2019-04-27T15:32:01.383Z,34.85
2019-04-27T15:34:48.239Z,35.98
2019-04-27T15:37:33.995Z,36.32
2019-04-27T15:40:12.383Z,36.92
2019-04-27T15:42:49.045Z,37.01
2019-04-27T15:45:15.989Z,37.37
2019-04-27T15:47:47.731Z,38.20
2019-04-27T15:50:18.164Z,38.28
2019-04-27T15:52:48.782Z,38.73
2019-04-27T15:55:31.748Z,38.95
2019-04-27T15:57:50.453Z,39.93
2019-04-27T16:00:24.531Z,41.30
2019-04-27T16:02:54.136Z,42.14
2019-04-27T16:05:28.676Z,42.67
2019-04-27T16:07:59.176Z,43.71
2019-04-27T16:10:28.313Z,43.58
2019-04-27T16:13:06.520Z,44.22
2019-04-27T16:15:29.963Z,44.82
2019-04-27T16:17:59.655Z,45.33
2019-04-27T16:20:33.792Z,46.25
2019-04-27T16:23:03.254Z,47.45
2019-04-27T16:25:45.243Z,49.68
2019-04-27T16:28:04.499Z,52.87
2019-04-27T16:30:34.940Z,53.53
2019-04-27T16:33:04.978Z,54.46
2019-04-27T16:35:34.573Z,53.32
2019-04-27T16:38:09.630Z,52.35
2019-04-27T16:40:39.304Z,51.71
2019-04-27T16:43:09.147Z,51.76
2019-04-27T16:45:38.961Z,50.75
2019-04-27T16:48:09.246Z,52.56
2019-04-27T16:50:39.118Z,51.18
2019-04-27T16:53:12.276Z,48.94
2019-04-27T16:55:40.218Z,49.12
2019-04-27T16:58:15.818Z,49.38
2019-04-27T17:00:41.172Z,50.61
2019-04-27T17:03:10.991Z,51.36
2019-04-27T17:05:40.592Z,50.75
2019-04-27T17:08:13.967Z,48.78
2019-04-27T17:10:41.591Z,50.14
2019-04-27T17:13:14.533Z,50.27
2019-04-27T17:15:58.906Z,49.49
2019-04-27T17:18:32.895Z,50.01
2019-04-27T17:21:15.795Z,50.57
2019-04-27T17:23:33.854Z,51.59
2019-04-27T17:26:09.524Z,50.50
2019-04-27T17:28:45.445Z,50.98
2019-04-27T17:31:19.662Z,50.42
2019-04-27T17:33:55.353Z,50.37
2019-04-27T17:36:24.969Z,50.17
2019-04-27T17:38:54.583Z,50.55
2019-04-27T17:41:24.157Z,49.03
2019-04-27T17:43:53.950Z,50.03
2019-04-27T17:46:23.569Z,50.92
2019-04-27T17:48:53.166Z,50.61
2019-04-27T17:51:22.777Z,50.00
2019-04-27T17:53:52.393Z,50.01
2019-04-27T17:56:34.015Z,49.59
2019-04-27T17:58:56.226Z,49.81
2019-04-27T18:01:30.141Z,49.44
2019-04-27T18:04:01.656Z,49.65
2019-04-27T18:06:29.752Z,49.18
2019-04-27T18:09:03.187Z,49.56
2019-04-27T18:11:32.970Z,49.55
2019-04-27T18:14:02.214Z,50.08
2019-04-27T18:16:34.409Z,49.34
2019-04-27T18:19:09.805Z,49.60
2019-04-27T18:21:40.194Z,50.00
2019-04-27T18:24:11.443Z,50.25
2019-04-27T18:26:49.263Z,50.18
2019-04-27T18:29:13.997Z,51.46
2019-04-27T18:31:46.335Z,51.54
2019-04-27T18:34:16.968Z,51.44
2019-04-27T18:36:46.338Z,52.23
2019-04-27T18:39:15.929Z,52.98
2019-04-27T18:41:53.328Z,55.15
2019-04-27T18:44:19.000Z,58.24
2019-04-27T18:46:48.903Z,57.39
2019-04-27T18:49:35.013Z,58.36
2019-04-27T18:52:06.310Z,58.51
2019-04-27T18:54:38.206Z,58.49
2019-04-27T18:57:10.725Z,58.74
2019-04-27T18:59:38.364Z,58.59
2019-04-27T19:02:08.568Z,58.63
2019-04-27T19:04:38.229Z,58.05
2019-04-27T19:07:08.767Z,57.96
2019-04-27T19:09:38.418Z,57.12
2019-04-27T19:12:08.041Z,56.51
2019-04-27T19:14:38.445Z,56.53
2019-04-27T19:17:08.043Z,57.57
2019-04-27T19:19:37.639Z,56.34
2019-04-27T19:22:08.931Z,56.12
2019-04-27T19:24:38.846Z,56.00
2019-04-27T19:27:18.024Z,56.01
2019-04-27T19:29:44.014Z,55.38
2019-04-27T19:32:13.610Z,55.78
2019-04-27T19:34:43.204Z,55.77
2019-04-27T19:37:12.809Z,55.56
2019-04-27T19:39:42.402Z,55.98
2019-04-27T19:42:12.010Z,56.76
2019-04-27T19:44:41.606Z,56.44
2019-04-27T19:47:11.208Z,56.78
2019-04-27T19:49:40.818Z,59.56
2019-04-27T19:52:10.409Z,63.73
2019-04-27T19:54:40.029Z,63.88
2019-04-27T19:57:09.622Z,62.80
2019-04-27T19:59:40.879Z,62.31
2019-04-27T20:02:12.891Z,62.43
2019-04-27T20:04:43.255Z,61.91
2019-04-27T20:07:12.855Z,61.14
2019-04-27T20:09:47.825Z,60.24
2019-04-27T20:12:18.243Z,59.73
2019-04-27T20:14:56.560Z,59.38
2019-04-27T20:17:31.053Z,58.32
2019-04-27T20:20:01.325Z,57.64
2019-04-27T20:22:31.176Z,57.74
2019-04-27T20:25:01.946Z,57.52
2019-04-27T20:27:44.960Z,57.53
2019-04-27T20:30:03.918Z,57.48
2019-04-27T20:32:33.509Z,57.28
2019-04-27T20:35:03.280Z,57.69
2019-04-27T20:37:32.872Z,57.59
2019-04-27T20:40:02.554Z,57.66
2019-04-27T20:42:32.152Z,57.64
2019-04-27T20:45:02.187Z,57.46
2019-04-27T20:47:32.387Z,57.44
2019-04-27T20:50:02.013Z,57.99
2019-04-27T20:52:46.079Z,58.79
2019-04-27T20:55:15.681Z,58.70
2019-04-27T20:57:58.405Z,60.46
2019-04-27T21:00:18.489Z,60.97
2019-04-27T21:02:51.691Z,62.06
2019-04-27T21:08:11.833Z,63.01
2019-04-27T21:10:41.459Z,63.76
2019-04-27T21:13:11.347Z,63.63
2019-04-27T21:15:41.923Z,64.03
2019-04-27T21:18:11.687Z,63.91
2019-04-27T21:20:41.374Z,63.81
2019-04-27T21:23:12.082Z,64.16
2019-04-27T21:25:42.193Z,64.38
2019-04-27T21:28:16.495Z,64.04
2019-04-27T21:30:43.255Z,64.03
2019-04-27T21:33:13.437Z,63.11
2019-04-27T21:35:43.241Z,63.17
2019-04-27T21:38:12.857Z,63.07
2019-04-27T21:40:42.462Z,63.48
2019-04-27T21:43:14.270Z,64.22
2019-04-27T21:45:43.879Z,64.78
2019-04-27T21:48:13.468Z,65.01
2019-04-27T21:50:43.080Z,65.01
2019-04-27T21:53:16.894Z,64.98
2019-04-27T21:55:48.154Z,64.94
2019-04-27T21:58:28.347Z,64.98
2019-04-27T22:00:56.460Z,65.11
2019-04-27T22:03:26.066Z,64.94
2019-04-27T22:05:55.685Z,65.00
2019-04-27T22:08:25.283Z,64.88
2019-04-27T22:10:54.891Z,64.95
2019-04-27T22:13:24.481Z,64.12
2019-04-27T22:15:54.079Z,64.32
2019-04-27T22:18:23.700Z,63.43
2019-04-27T22:20:53.485Z,63.86
2019-04-27T22:23:31.570Z,63.34
2019-04-27T22:26:01.447Z,63.47
2019-04-27T22:28:44.172Z,63.25
2019-04-27T22:31:02.594Z,63.28
2019-04-27T22:33:32.192Z,63.33
2019-04-27T22:36:01.976Z,63.20
2019-04-27T22:38:32.676Z,62.90
2019-04-27T22:41:04.014Z,62.79
2019-04-27T22:43:36.834Z,62.75
2019-04-27T22:46:08.079Z,62.91
2019-04-27T22:48:37.665Z,62.61
2019-04-27T22:51:07.273Z,62.27
2019-04-27T22:53:36.881Z,61.55
2019-04-27T22:56:13.483Z,61.41
2019-04-27T22:59:00.400Z,61.63
2019-04-27T23:01:42.640Z,61.35
2019-04-27T23:04:25.809Z,61.19
2019-04-27T23:06:55.412Z,61.04
2019-04-27T23:09:25.035Z,60.85
2019-04-27T23:11:54.718Z,60.71
2019-04-27T23:14:24.314Z,61.01
2019-04-27T23:16:55.565Z,60.38
2019-04-27T23:19:25.166Z,60.64
2019-04-27T23:21:54.774Z,61.23
2019-04-27T23:24:24.363Z,61.55
2019-04-27T23:26:53.976Z,61.97
2019-04-27T23:29:23.569Z,62.45
2019-04-27T23:31:54.830Z,62.79
2019-04-27T23:34:24.421Z,62.82
2019-04-27T23:36:54.043Z,63.54
2019-04-27T23:39:23.644Z,63.29
2019-04-27T23:41:53.262Z,63.06
2019-04-27T23:44:22.854Z,63.59
2019-04-27T23:46:52.472Z,63.28
2019-04-27T23:49:22.092Z,63.67
2019-04-27T23:51:59.197Z,63.56
2019-04-27T23:54:28.799Z,63.64
2019-04-27T23:56:58.417Z,63.99
2019-04-27T23:59:28.007Z,63.64
